sensor_id;sensor_type;location;lat;lon;timestamp;P1;durP1;ratioP1;P2;durP2;ratioP2
80123;SDS011;69433;48.642;9.142;2023-12-04T00:05:31;10.90;;;8.27;;
80123;SDS011;69433;48.642;9.142;2023-12-04T00:08:02;13.00;;;9.00;;
80123;SDS011;69433;48.642;9.142;2023-12-04T00:12:55;11.88;;;7.97;;
80123;SDS011;69433;48.642;9.142;2023-12-04T00:15:25;11.23;;;8.50;;
80123;SDS011;69433;48.642;9.142;2023-12-04T00:17:52;11.23;;;8.38;;
80123;SDS011;69433;48.642;9.142;2023-12-04T00:20:21;12.77;;;9.13;;
80123;SDS011;69433;48.642;9.142;2023-12-04T00:25:32;12.50;;;8.77;;
80123;SDS011;69433;48.642;9.142;2023-12-04T00:27:59;10.65;;;8.27;;
80123;SDS011;69433;48.642;9.142;2023-12-04T00:30:34;12.75;;;9.02;;
80123;SDS011;69433;48.642;9.142;2023-12-04T00:33:08;11.38;;;8.95;;
80123;SDS011;69433;48.642;9.142;2023-12-04T00:35:43;11.20;;;7.93;;
80123;SDS011;69433;48.642;9.142;2023-12-04T00:38:15;11.23;;;8.15;;
80123;SDS011;69433;48.642;9.142;2023-12-04T00:40:52;9.90;;;8.05;;
80123;SDS011;69433;48.642;9.142;2023-12-04T00:45:49;11.43;;;8.13;;
80123;SDS011;69433;48.642;9.142;2023-12-04T00:48:22;12.88;;;7.97;;
80123;SDS011;69433;48.642;9.142;2023-12-04T00:50:57;10.77;;;8.02;;
80123;SDS011;69433;48.642;9.142;2023-12-04T00:53:38;10.18;;;7.60;;
80123;SDS011;69433;48.642;9.142;2023-12-04T00:56:04;9.38;;;7.15;;
80123;SDS011;69433;48.642;9.142;2023-12-04T00:58:45;11.90;;;8.10;;
80123;SDS011;69433;48.642;9.142;2023-12-04T01:01:13;9.93;;;7.80;;
80123;SDS011;69433;48.642;9.142;2023-12-04T01:03:39;10.50;;;8.13;;
80123;SDS011;69433;48.642;9.142;2023-12-04T01:06:06;10.77;;;7.85;;
80123;SDS011;69433;48.642;9.142;2023-12-04T01:08:32;10.55;;;8.27;;
80123;SDS011;69433;48.642;9.142;2023-12-04T01:11:07;10.07;;;7.75;;
80123;SDS011;69433;48.642;9.142;2023-12-04T01:13:37;11.27;;;7.85;;
80123;SDS011;69433;48.642;9.142;2023-12-04T01:18:41;9.98;;;7.45;;
80123;SDS011;69433;48.642;9.142;2023-12-04T01:21:18;11.85;;;7.63;;
80123;SDS011;69433;48.642;9.142;2023-12-04T01:23:51;11.27;;;7.00;;
80123;SDS011;69433;48.642;9.142;2023-12-04T01:26:18;10.02;;;7.63;;
80123;SDS011;69433;48.642;9.142;2023-12-04T01:28:54;10.63;;;7.50;;
80123;SDS011;69433;48.642;9.142;2023-12-04T01:31:22;10.65;;;7.60;;
80123;SDS011;69433;48.642;9.142;2023-12-04T01:33:49;11.10;;;7.68;;
80123;SDS011;69433;48.642;9.142;2023-12-04T01:36:15;9.52;;;7.03;;
80123;SDS011;69433;48.642;9.142;2023-12-04T01:38:43;8.88;;;6.90;;
80123;SDS011;69433;48.642;9.142;2023-12-04T01:41:14;9.32;;;7.30;;
80123;SDS011;69433;48.642;9.142;2023-12-04T01:43:41;9.25;;;7.53;;
80123;SDS011;69433;48.642;9.142;2023-12-04T01:46:09;8.82;;;6.82;;
80123;SDS011;69433;48.642;9.142;2023-12-04T01:48:34;9.43;;;7.10;;
80123;SDS011;69433;48.642;9.142;2023-12-04T01:51:05;9.52;;;7.50;;
80123;SDS011;69433;48.642;9.142;2023-12-04T01:53:39;9.48;;;6.90;;
80123;SDS011;69433;48.642;9.142;2023-12-04T01:56:09;11.75;;;7.50;;
80123;SDS011;69433;48.642;9.142;2023-12-04T01:58:35;9.65;;;7.07;;
80123;SDS011;69433;48.642;9.142;2023-12-04T02:01:03;9.23;;;7.13;;
80123;SDS011;69433;48.642;9.142;2023-12-04T02:03:37;9.63;;;6.80;;
80123;SDS011;69433;48.642;9.142;2023-12-04T02:08:42;9.20;;;7.47;;
80123;SDS011;69433;48.642;9.142;2023-12-04T02:11:11;10.13;;;6.95;;
80123;SDS011;69433;48.642;9.142;2023-12-04T02:13:36;10.02;;;7.05;;
80123;SDS011;69433;48.642;9.142;2023-12-04T02:16:04;9.93;;;7.05;;
80123;SDS011;69433;48.642;9.142;2023-12-04T02:18:39;9.10;;;7.18;;
80123;SDS011;69433;48.642;9.142;2023-12-04T02:23:47;10.05;;;7.35;;
80123;SDS011;69433;48.642;9.142;2023-12-04T02:29:01;11.75;;;7.03;;
80123;SDS011;69433;48.642;9.142;2023-12-04T02:31:39;9.38;;;6.40;;
80123;SDS011;69433;48.642;9.142;2023-12-04T02:34:08;9.55;;;7.00;;
80123;SDS011;69433;48.642;9.142;2023-12-04T02:36:38;9.55;;;6.10;;
80123;SDS011;69433;48.642;9.142;2023-12-04T02:39:16;8.80;;;6.13;;
80123;SDS011;69433;48.642;9.142;2023-12-04T02:41:42;9.13;;;6.78;;
80123;SDS011;69433;48.642;9.142;2023-12-04T02:44:08;8.45;;;6.38;;
80123;SDS011;69433;48.642;9.142;2023-12-04T02:46:34;9.85;;;7.10;;
80123;SDS011;69433;48.642;9.142;2023-12-04T02:49:03;9.00;;;6.72;;
80123;SDS011;69433;48.642;9.142;2023-12-04T02:51:33;7.68;;;6.18;;
80123;SDS011;69433;48.642;9.142;2023-12-04T02:53:59;7.95;;;6.30;;
80123;SDS011;69433;48.642;9.142;2023-12-04T02:58:54;9.23;;;6.50;;
80123;SDS011;69433;48.642;9.142;2023-12-04T03:01:20;9.52;;;6.78;;
80123;SDS011;69433;48.642;9.142;2023-12-04T03:03:46;7.75;;;6.18;;
80123;SDS011;69433;48.642;9.142;2023-12-04T03:06:11;9.50;;;6.68;;
80123;SDS011;69433;48.642;9.142;2023-12-04T03:08:38;7.70;;;6.50;;
80123;SDS011;69433;48.642;9.142;2023-12-04T03:11:04;8.45;;;6.15;;
80123;SDS011;69433;48.642;9.142;2023-12-04T03:13:31;8.85;;;6.57;;
80123;SDS011;69433;48.642;9.142;2023-12-04T03:19:00;8.23;;;6.25;;
80123;SDS011;69433;48.642;9.142;2023-12-04T03:21:25;9.23;;;6.30;;
80123;SDS011;69433;48.642;9.142;2023-12-04T03:23:51;7.20;;;6.15;;
80123;SDS011;69433;48.642;9.142;2023-12-04T03:26:16;8.45;;;6.18;;
80123;SDS011;69433;48.642;9.142;2023-12-04T03:28:42;8.45;;;6.10;;
80123;SDS011;69433;48.642;9.142;2023-12-04T03:31:15;8.95;;;6.45;;
80123;SDS011;69433;48.642;9.142;2023-12-04T03:33:41;8.10;;;5.82;;
80123;SDS011;69433;48.642;9.142;2023-12-04T03:36:06;7.43;;;6.22;;
80123;SDS011;69433;48.642;9.142;2023-12-04T03:38:39;8.18;;;6.25;;
80123;SDS011;69433;48.642;9.142;2023-12-04T03:41:14;8.05;;;5.68;;
80123;SDS011;69433;48.642;9.142;2023-12-04T03:46:16;8.70;;;5.55;;
80123;SDS011;69433;48.642;9.142;2023-12-04T03:48:46;7.75;;;5.70;;
80123;SDS011;69433;48.642;9.142;2023-12-04T03:51:17;9.00;;;6.20;;
80123;SDS011;69433;48.642;9.142;2023-12-04T03:53:44;7.82;;;6.25;;
80123;SDS011;69433;48.642;9.142;2023-12-04T03:56:17;8.00;;;5.93;;
80123;SDS011;69433;48.642;9.142;2023-12-04T03:58:42;8.13;;;5.88;;
80123;SDS011;69433;48.642;9.142;2023-12-04T04:01:27;7.13;;;5.82;;
80123;SDS011;69433;48.642;9.142;2023-12-04T04:03:58;7.28;;;6.13;;
80123;SDS011;69433;48.642;9.142;2023-12-04T04:06:23;8.30;;;5.60;;
80123;SDS011;69433;48.642;9.142;2023-12-04T04:08:55;7.25;;;5.75;;
80123;SDS011;69433;48.642;9.142;2023-12-04T04:11:31;7.43;;;5.80;;
80123;SDS011;69433;48.642;9.142;2023-12-04T04:13:57;8.73;;;6.00;;
80123;SDS011;69433;48.642;9.142;2023-12-04T04:16:33;7.28;;;5.68;;
80123;SDS011;69433;48.642;9.142;2023-12-04T04:19:05;8.45;;;6.15;;
80123;SDS011;69433;48.642;9.142;2023-12-04T04:21:39;6.82;;;5.10;;
80123;SDS011;69433;48.642;9.142;2023-12-04T04:24:08;8.18;;;5.80;;
80123;SDS011;69433;48.642;9.142;2023-12-04T04:26:35;8.52;;;5.93;;
80123;SDS011;69433;48.642;9.142;2023-12-04T04:29:01;7.57;;;5.60;;
80123;SDS011;69433;48.642;9.142;2023-12-04T04:31:27;7.95;;;6.25;;
80123;SDS011;69433;48.642;9.142;2023-12-04T04:33:52;8.18;;;5.53;;
80123;SDS011;69433;48.642;9.142;2023-12-04T04:36:24;7.32;;;5.70;;
80123;SDS011;69433;48.642;9.142;2023-12-04T04:39:00;9.93;;;5.70;;
80123;SDS011;69433;48.642;9.142;2023-12-04T04:41:26;7.22;;;5.30;;
80123;SDS011;69433;48.642;9.142;2023-12-04T04:44:01;7.05;;;5.47;;
80123;SDS011;69433;48.642;9.142;2023-12-04T04:46:28;9.63;;;5.45;;
80123;SDS011;69433;48.642;9.142;2023-12-04T04:49:06;6.68;;;5.55;;
80123;SDS011;69433;48.642;9.142;2023-12-04T04:51:34;6.47;;;4.90;;
80123;SDS011;69433;48.642;9.142;2023-12-04T04:54:00;7.38;;;5.10;;
80123;SDS011;69433;48.642;9.142;2023-12-04T04:56:35;12.82;;;5.13;;
80123;SDS011;69433;48.642;9.142;2023-12-04T04:59:02;11.60;;;5.20;;
80123;SDS011;69433;48.642;9.142;2023-12-04T05:01:35;6.70;;;5.32;;
80123;SDS011;69433;48.642;9.142;2023-12-04T05:04:06;9.45;;;5.30;;
80123;SDS011;69433;48.642;9.142;2023-12-04T05:06:40;6.75;;;5.40;;
80123;SDS011;69433;48.642;9.142;2023-12-04T05:09:13;8.02;;;5.38;;
80123;SDS011;69433;48.642;9.142;2023-12-04T05:15:12;9.38;;;4.72;;
80123;SDS011;69433;48.642;9.142;2023-12-04T05:17:41;7.20;;;5.03;;
80123;SDS011;69433;48.642;9.142;2023-12-04T05:20:13;6.05;;;5.32;;
80123;SDS011;69433;48.642;9.142;2023-12-04T05:22:49;8.65;;;4.93;;
80123;SDS011;69433;48.642;9.142;2023-12-04T05:25:21;9.63;;;4.90;;
80123;SDS011;69433;48.642;9.142;2023-12-04T05:27:57;8.10;;;4.72;;
80123;SDS011;69433;48.642;9.142;2023-12-04T05:30:24;7.38;;;4.70;;
80123;SDS011;69433;48.642;9.142;2023-12-04T05:32:54;8.70;;;5.28;;
80123;SDS011;69433;48.642;9.142;2023-12-04T05:35:19;8.48;;;4.97;;
80123;SDS011;69433;48.642;9.142;2023-12-04T05:37:45;6.57;;;5.07;;
80123;SDS011;69433;48.642;9.142;2023-12-04T05:40:11;7.20;;;4.85;;
80123;SDS011;69433;48.642;9.142;2023-12-04T05:42:37;7.55;;;5.15;;
80123;SDS011;69433;48.642;9.142;2023-12-04T05:45:06;6.50;;;5.15;;
80123;SDS011;69433;48.642;9.142;2023-12-04T05:47:47;7.68;;;5.35;;
80123;SDS011;69433;48.642;9.142;2023-12-04T05:50:15;7.05;;;4.68;;
80123;SDS011;69433;48.642;9.142;2023-12-04T05:52:41;9.80;;;4.93;;
80123;SDS011;69433;48.642;9.142;2023-12-04T06:01:03;7.47;;;4.60;;
80123;SDS011;69433;48.642;9.142;2023-12-04T06:06:00;7.20;;;4.63;;
80123;SDS011;69433;48.642;9.142;2023-12-04T06:08:25;7.35;;;4.90;;
80123;SDS011;69433;48.642;9.142;2023-12-04T06:10:51;11.63;;;4.93;;
80123;SDS011;69433;48.642;9.142;2023-12-04T06:13:18;7.72;;;4.78;;
80123;SDS011;69433;48.642;9.142;2023-12-04T06:15:53;12.70;;;4.88;;
80123;SDS011;69433;48.642;9.142;2023-12-04T06:21:08;8.32;;;4.90;;
80123;SDS011;69433;48.642;9.142;2023-12-04T06:23:36;8.95;;;5.07;;
80123;SDS011;69433;48.642;9.142;2023-12-04T06:26:12;6.53;;;5.20;;
80123;SDS011;69433;48.642;9.142;2023-12-04T06:28:38;6.32;;;4.72;;
80123;SDS011;69433;48.642;9.142;2023-12-04T06:31:03;8.13;;;4.80;;
80123;SDS011;69433;48.642;9.142;2023-12-04T06:33:31;6.28;;;4.93;;
80123;SDS011;69433;48.642;9.142;2023-12-04T06:35:57;6.75;;;4.88;;
80123;SDS011;69433;48.642;9.142;2023-12-04T06:38:24;7.88;;;4.85;;
80123;SDS011;69433;48.642;9.142;2023-12-04T06:43:21;7.60;;;4.85;;
80123;SDS011;69433;48.642;9.142;2023-12-04T06:45:47;6.22;;;4.95;;
80123;SDS011;69433;48.642;9.142;2023-12-04T06:48:14;8.18;;;4.18;;
80123;SDS011;69433;48.642;9.142;2023-12-04T06:50:44;7.45;;;5.00;;
80123;SDS011;69433;48.642;9.142;2023-12-04T06:53:18;6.63;;;4.97;;
80123;SDS011;69433;48.642;9.142;2023-12-04T06:55:43;6.85;;;4.28;;
80123;SDS011;69433;48.642;9.142;2023-12-04T07:00:52;6.53;;;4.70;;
80123;SDS011;69433;48.642;9.142;2023-12-04T07:05:46;6.25;;;4.82;;
80123;SDS011;69433;48.642;9.142;2023-12-04T07:13:54;6.13;;;4.70;;
80123;SDS011;69433;48.642;9.142;2023-12-04T07:16:27;6.75;;;4.72;;
80123;SDS011;69433;48.642;9.142;2023-12-04T07:18:52;5.90;;;4.72;;
80123;SDS011;69433;48.642;9.142;2023-12-04T07:21:21;7.38;;;4.85;;
80123;SDS011;69433;48.642;9.142;2023-12-04T07:26:33;5.63;;;4.70;;
80123;SDS011;69433;48.642;9.142;2023-12-04T07:28:59;6.28;;;5.00;;
80123;SDS011;69433;48.642;9.142;2023-12-04T07:31:24;6.47;;;4.93;;
80123;SDS011;69433;48.642;9.142;2023-12-04T07:33:56;5.68;;;4.60;;
80123;SDS011;69433;48.642;9.142;2023-12-04T07:36:23;6.85;;;4.32;;
80123;SDS011;69433;48.642;9.142;2023-12-04T07:38:50;6.10;;;4.85;;
80123;SDS011;69433;48.642;9.142;2023-12-04T07:41:17;6.18;;;4.78;;
80123;SDS011;69433;48.642;9.142;2023-12-04T07:43:43;6.32;;;4.63;;
80123;SDS011;69433;48.642;9.142;2023-12-04T07:46:23;5.60;;;4.53;;
80123;SDS011;69433;48.642;9.142;2023-12-04T07:48:54;4.97;;;4.07;;
80123;SDS011;69433;48.642;9.142;2023-12-04T07:51:19;5.72;;;4.55;;
80123;SDS011;69433;48.642;9.142;2023-12-04T07:53:50;7.95;;;4.85;;
80123;SDS011;69433;48.642;9.142;2023-12-04T07:56:24;6.22;;;5.03;;
80123;SDS011;69433;48.642;9.142;2023-12-04T07:58:55;6.53;;;4.28;;
80123;SDS011;69433;48.642;9.142;2023-12-04T08:03:58;7.72;;;4.93;;
80123;SDS011;69433;48.642;9.142;2023-12-04T08:06:23;7.25;;;4.75;;
80123;SDS011;69433;48.642;9.142;2023-12-04T08:09:03;7.15;;;4.68;;
80123;SDS011;69433;48.642;9.142;2023-12-04T08:11:33;6.95;;;4.53;;
80123;SDS011;69433;48.642;9.142;2023-12-04T08:14:06;6.95;;;5.10;;
80123;SDS011;69433;48.642;9.142;2023-12-04T08:16:32;6.45;;;4.90;;
80123;SDS011;69433;48.642;9.142;2023-12-04T08:19:06;7.70;;;4.78;;
80123;SDS011;69433;48.642;9.142;2023-12-04T08:21:38;6.78;;;4.82;;
80123;SDS011;69433;48.642;9.142;2023-12-04T08:24:15;7.40;;;4.78;;
80123;SDS011;69433;48.642;9.142;2023-12-04T08:26:43;7.03;;;5.10;;
80123;SDS011;69433;48.642;9.142;2023-12-04T08:29:15;6.85;;;4.70;;
80123;SDS011;69433;48.642;9.142;2023-12-04T08:31:43;8.93;;;5.47;;
80123;SDS011;69433;48.642;9.142;2023-12-04T08:34:14;6.40;;;4.47;;
80123;SDS011;69433;48.642;9.142;2023-12-04T08:36:40;8.85;;;4.78;;
80123;SDS011;69433;48.642;9.142;2023-12-04T08:39:15;10.68;;;5.30;;
80123;SDS011;69433;48.642;9.142;2023-12-04T08:41:47;7.97;;;4.55;;
80123;SDS011;69433;48.642;9.142;2023-12-04T08:44:14;11.30;;;5.25;;
80123;SDS011;69433;48.642;9.142;2023-12-04T08:46:41;6.75;;;5.03;;
80123;SDS011;69433;48.642;9.142;2023-12-04T08:49:07;7.32;;;5.03;;
80123;SDS011;69433;48.642;9.142;2023-12-04T08:51:32;11.57;;;4.68;;
80123;SDS011;69433;48.642;9.142;2023-12-04T08:54:07;6.97;;;4.80;;
80123;SDS011;69433;48.642;9.142;2023-12-04T08:56:34;8.10;;;4.90;;
80123;SDS011;69433;48.642;9.142;2023-12-04T08:59:10;6.97;;;4.68;;
80123;SDS011;69433;48.642;9.142;2023-12-04T09:01:52;7.90;;;5.47;;
80123;SDS011;69433;48.642;9.142;2023-12-04T09:06:52;6.57;;;4.97;;
80123;SDS011;69433;48.642;9.142;2023-12-04T09:09:20;6.47;;;5.15;;
80123;SDS011;69433;48.642;9.142;2023-12-04T09:11:46;7.90;;;5.60;;
80123;SDS011;69433;48.642;9.142;2023-12-04T09:14:15;6.03;;;4.95;;
80123;SDS011;69433;48.642;9.142;2023-12-04T09:16:41;6.30;;;4.80;;
80123;SDS011;69433;48.642;9.142;2023-12-04T09:19:07;6.22;;;4.65;;
80123;SDS011;69433;48.642;9.142;2023-12-04T09:21:32;6.60;;;4.72;;
80123;SDS011;69433;48.642;9.142;2023-12-04T09:27:13;6.10;;;4.95;;
80123;SDS011;69433;48.642;9.142;2023-12-04T09:29:48;6.22;;;4.75;;
80123;SDS011;69433;48.642;9.142;2023-12-04T09:32:13;8.82;;;4.57;;
80123;SDS011;69433;48.642;9.142;2023-12-04T09:37:25;6.93;;;4.53;;
80123;SDS011;69433;48.642;9.142;2023-12-04T09:42:30;6.25;;;5.15;;
80123;SDS011;69433;48.642;9.142;2023-12-04T09:47:29;9.25;;;4.22;;
80123;SDS011;69433;48.642;9.142;2023-12-04T09:49:57;5.85;;;4.70;;
80123;SDS011;69433;48.642;9.142;2023-12-04T09:52:22;5.70;;;4.65;;
80123;SDS011;69433;48.642;9.142;2023-12-04T09:54:47;6.43;;;4.38;;
80123;SDS011;69433;48.642;9.142;2023-12-04T09:57:18;5.82;;;4.43;;
80123;SDS011;69433;48.642;9.142;2023-12-04T09:59:44;7.50;;;4.63;;
80123;SDS011;69433;48.642;9.142;2023-12-04T10:02:15;5.20;;;4.57;;
80123;SDS011;69433;48.642;9.142;2023-12-04T10:07:32;7.65;;;4.75;;
80123;SDS011;69433;48.642;9.142;2023-12-04T10:10:02;5.40;;;4.13;;
80123;SDS011;69433;48.642;9.142;2023-12-04T10:12:45;7.95;;;4.97;;
80123;SDS011;69433;48.642;9.142;2023-12-04T10:15:29;6.22;;;4.55;;
80123;SDS011;69433;48.642;9.142;2023-12-04T10:18:09;5.25;;;4.22;;
80123;SDS011;69433;48.642;9.142;2023-12-04T10:23:58;5.68;;;3.95;;
80123;SDS011;69433;48.642;9.142;2023-12-04T10:26:24;4.75;;;3.72;;
80123;SDS011;69433;48.642;9.142;2023-12-04T10:34:26;5.80;;;3.67;;
80123;SDS011;69433;48.642;9.142;2023-12-04T10:36:51;5.95;;;4.07;;
80123;SDS011;69433;48.642;9.142;2023-12-04T10:39:17;5.10;;;4.18;;
80123;SDS011;69433;48.642;9.142;2023-12-04T10:41:58;5.55;;;3.80;;
80123;SDS011;69433;48.642;9.142;2023-12-04T10:44:32;5.78;;;4.00;;
80123;SDS011;69433;48.642;9.142;2023-12-04T10:46:58;5.50;;;4.05;;
80123;SDS011;69433;48.642;9.142;2023-12-04T10:49:34;5.63;;;4.38;;
80123;SDS011;69433;48.642;9.142;2023-12-04T10:52:02;6.68;;;3.72;;
80123;SDS011;69433;48.642;9.142;2023-12-04T10:54:35;5.25;;;3.72;;
80123;SDS011;69433;48.642;9.142;2023-12-04T10:57:01;6.32;;;3.95;;
80123;SDS011;69433;48.642;9.142;2023-12-04T10:59:32;6.85;;;4.20;;
80123;SDS011;69433;48.642;9.142;2023-12-04T11:02:01;4.78;;;3.80;;
80123;SDS011;69433;48.642;9.142;2023-12-04T11:07:33;6.38;;;3.75;;
80123;SDS011;69433;48.642;9.142;2023-12-04T11:10:03;4.72;;;3.40;;
80123;SDS011;69433;48.642;9.142;2023-12-04T11:12:32;4.80;;;3.78;;
80123;SDS011;69433;48.642;9.142;2023-12-04T11:15:00;4.45;;;3.38;;
80123;SDS011;69433;48.642;9.142;2023-12-04T11:20:01;6.75;;;4.18;;
80123;SDS011;69433;48.642;9.142;2023-12-04T11:25:20;5.47;;;3.60;;
80123;SDS011;69433;48.642;9.142;2023-12-04T11:27:56;5.35;;;3.67;;
80123;SDS011;69433;48.642;9.142;2023-12-04T11:30:22;5.82;;;3.50;;
80123;SDS011;69433;48.642;9.142;2023-12-04T11:32:50;5.75;;;3.63;;
80123;SDS011;69433;48.642;9.142;2023-12-04T11:35:16;4.97;;;3.78;;
80123;SDS011;69433;48.642;9.142;2023-12-04T11:37:45;5.45;;;3.63;;
80123;SDS011;69433;48.642;9.142;2023-12-04T11:40:18;5.18;;;3.60;;
80123;SDS011;69433;48.642;9.142;2023-12-04T11:42:51;4.95;;;3.42;;
80123;SDS011;69433;48.642;9.142;2023-12-04T11:45:24;4.05;;;3.45;;
80123;SDS011;69433;48.642;9.142;2023-12-04T11:47:50;4.38;;;3.42;;
80123;SDS011;69433;48.642;9.142;2023-12-04T11:50:26;5.05;;;3.70;;
80123;SDS011;69433;48.642;9.142;2023-12-04T11:52:52;5.13;;;3.38;;
80123;SDS011;69433;48.642;9.142;2023-12-04T11:55:26;4.88;;;3.67;;
80123;SDS011;69433;48.642;9.142;2023-12-04T11:58:00;4.53;;;3.53;;
80123;SDS011;69433;48.642;9.142;2023-12-04T12:00:26;5.43;;;3.53;;
80123;SDS011;69433;48.642;9.142;2023-12-04T12:05:20;4.47;;;3.08;;
80123;SDS011;69433;48.642;9.142;2023-12-04T12:07:46;4.93;;;3.30;;
80123;SDS011;69433;48.642;9.142;2023-12-04T12:10:19;4.47;;;3.33;;
80123;SDS011;69433;48.642;9.142;2023-12-04T12:12:45;5.03;;;3.35;;
80123;SDS011;69433;48.642;9.142;2023-12-04T12:15:19;5.38;;;3.28;;
80123;SDS011;69433;48.642;9.142;2023-12-04T12:17:47;6.25;;;3.55;;
80123;SDS011;69433;48.642;9.142;2023-12-04T12:20:15;4.03;;;3.05;;
80123;SDS011;69433;48.642;9.142;2023-12-04T12:22:45;6.43;;;3.30;;
80123;SDS011;69433;48.642;9.142;2023-12-04T12:25:27;4.78;;;3.20;;
80123;SDS011;69433;48.642;9.142;2023-12-04T12:27:53;6.53;;;3.70;;
80123;SDS011;69433;48.642;9.142;2023-12-04T12:30:24;4.75;;;3.25;;
80123;SDS011;69433;48.642;9.142;2023-12-04T12:32:59;4.90;;;3.38;;
80123;SDS011;69433;48.642;9.142;2023-12-04T12:35:28;4.85;;;3.15;;
80123;SDS011;69433;48.642;9.142;2023-12-04T12:40:58;3.72;;;3.10;;
80123;SDS011;69433;48.642;9.142;2023-12-04T12:46:02;6.50;;;4.18;;
80123;SDS011;69433;48.642;9.142;2023-12-04T12:48:35;5.63;;;4.20;;
80123;SDS011;69433;48.642;9.142;2023-12-04T12:51:07;5.85;;;4.55;;
80123;SDS011;69433;48.642;9.142;2023-12-04T12:53:33;7.80;;;4.60;;
80123;SDS011;69433;48.642;9.142;2023-12-04T12:55:59;4.90;;;4.30;;
80123;SDS011;69433;48.642;9.142;2023-12-04T12:58:26;4.60;;;3.75;;
80123;SDS011;69433;48.642;9.142;2023-12-04T13:01:02;6.03;;;4.50;;
80123;SDS011;69433;48.642;9.142;2023-12-04T13:06:20;4.65;;;3.65;;
80123;SDS011;69433;48.642;9.142;2023-12-04T13:08:53;4.82;;;3.88;;
80123;SDS011;69433;48.642;9.142;2023-12-04T13:13:52;5.53;;;3.47;;
80123;SDS011;69433;48.642;9.142;2023-12-04T13:16:24;5.90;;;3.72;;
80123;SDS011;69433;48.642;9.142;2023-12-04T13:18:49;5.40;;;3.47;;
80123;SDS011;69433;48.642;9.142;2023-12-04T13:26:54;4.50;;;3.40;;
80123;SDS011;69433;48.642;9.142;2023-12-04T13:29:19;5.45;;;3.42;;
80123;SDS011;69433;48.642;9.142;2023-12-04T13:31:52;4.43;;;3.50;;
80123;SDS011;69433;48.642;9.142;2023-12-04T13:34:27;4.60;;;3.47;;
80123;SDS011;69433;48.642;9.142;2023-12-04T13:36:53;4.18;;;3.05;;
80123;SDS011;69433;48.642;9.142;2023-12-04T13:39:19;4.63;;;3.22;;
80123;SDS011;69433;48.642;9.142;2023-12-04T13:41:58;7.18;;;3.30;;
80123;SDS011;69433;48.642;9.142;2023-12-04T13:44:46;4.78;;;3.42;;
80123;SDS011;69433;48.642;9.142;2023-12-04T13:50:13;4.80;;;3.42;;
80123;SDS011;69433;48.642;9.142;2023-12-04T13:55:34;5.28;;;3.50;;
80123;SDS011;69433;48.642;9.142;2023-12-04T14:01:46;4.13;;;3.35;;
80123;SDS011;69433;48.642;9.142;2023-12-04T14:04:13;8.07;;;3.58;;
80123;SDS011;69433;48.642;9.142;2023-12-04T14:06:39;5.20;;;3.63;;
80123;SDS011;69433;48.642;9.142;2023-12-04T14:12:04;4.55;;;3.05;;
80123;SDS011;69433;48.642;9.142;2023-12-04T14:14:32;8.00;;;3.72;;
80123;SDS011;69433;48.642;9.142;2023-12-04T14:17:17;5.47;;;3.15;;
80123;SDS011;69433;48.642;9.142;2023-12-04T14:19:52;4.70;;;3.47;;
80123;SDS011;69433;48.642;9.142;2023-12-04T14:22:17;7.40;;;3.75;;
80123;SDS011;69433;48.642;9.142;2023-12-04T14:24:47;4.82;;;3.17;;
80123;SDS011;69433;48.642;9.142;2023-12-04T14:27:19;4.32;;;3.13;;
80123;SDS011;69433;48.642;9.142;2023-12-04T14:29:56;5.20;;;3.20;;
80123;SDS011;69433;48.642;9.142;2023-12-04T14:32:22;5.03;;;3.47;;
80123;SDS011;69433;48.642;9.142;2023-12-04T14:35:00;3.90;;;3.03;;
80123;SDS011;69433;48.642;9.142;2023-12-04T14:37:33;4.57;;;3.22;;
80123;SDS011;69433;48.642;9.142;2023-12-04T14:43:02;5.78;;;3.47;;
80123;SDS011;69433;48.642;9.142;2023-12-04T14:48:14;4.50;;;3.25;;
80123;SDS011;69433;48.642;9.142;2023-12-04T14:50:40;5.35;;;3.22;;
80123;SDS011;69433;48.642;9.142;2023-12-04T14:53:20;5.15;;;3.35;;
80123;SDS011;69433;48.642;9.142;2023-12-04T14:56:00;4.35;;;3.15;;
80123;SDS011;69433;48.642;9.142;2023-12-04T15:04:34;4.68;;;3.15;;
80123;SDS011;69433;48.642;9.142;2023-12-04T15:07:32;5.38;;;3.67;;
80123;SDS011;69433;48.642;9.142;2023-12-04T15:10:32;4.47;;;3.28;;
80123;SDS011;69433;48.642;9.142;2023-12-04T15:13:23;6.22;;;3.47;;
80123;SDS011;69433;48.642;9.142;2023-12-04T15:16:18;6.47;;;3.05;;
80123;SDS011;69433;48.642;9.142;2023-12-04T15:18:53;5.60;;;3.38;;
80123;SDS011;69433;48.642;9.142;2023-12-04T15:21:21;6.00;;;3.83;;
80123;SDS011;69433;48.642;9.142;2023-12-04T15:23:47;6.53;;;3.65;;
80123;SDS011;69433;48.642;9.142;2023-12-04T15:26:12;4.15;;;3.30;;
80123;SDS011;69433;48.642;9.142;2023-12-04T15:32:07;5.68;;;3.47;;
80123;SDS011;69433;48.642;9.142;2023-12-04T15:34:34;4.90;;;3.33;;
80123;SDS011;69433;48.642;9.142;2023-12-04T15:37:00;4.57;;;3.33;;
80123;SDS011;69433;48.642;9.142;2023-12-04T15:42:26;4.78;;;3.38;;
80123;SDS011;69433;48.642;9.142;2023-12-04T15:48:00;4.90;;;3.45;;
80123;SDS011;69433;48.642;9.142;2023-12-04T15:50:34;4.93;;;3.53;;
80123;SDS011;69433;48.642;9.142;2023-12-04T15:53:15;7.65;;;3.83;;
80123;SDS011;69433;48.642;9.142;2023-12-04T15:55:40;5.55;;;3.72;;
80123;SDS011;69433;48.642;9.142;2023-12-04T15:58:16;4.82;;;3.03;;
80123;SDS011;69433;48.642;9.142;2023-12-04T16:00:44;6.78;;;3.65;;
80123;SDS011;69433;48.642;9.142;2023-12-04T16:03:16;5.13;;;3.75;;
80123;SDS011;69433;48.642;9.142;2023-12-04T16:05:53;5.05;;;3.60;;
80123;SDS011;69433;48.642;9.142;2023-12-04T16:08:24;5.00;;;3.80;;
80123;SDS011;69433;48.642;9.142;2023-12-04T16:10:49;15.63;;;9.98;;
80123;SDS011;69433;48.642;9.142;2023-12-04T16:13:15;19.08;;;12.60;;
80123;SDS011;69433;48.642;9.142;2023-12-04T16:15:54;22.02;;;13.88;;
80123;SDS011;69433;48.642;9.142;2023-12-04T16:18:21;20.20;;;12.85;;
80123;SDS011;69433;48.642;9.142;2023-12-04T16:21:03;17.95;;;11.68;;
80123;SDS011;69433;48.642;9.142;2023-12-04T16:23:35;18.40;;;11.40;;
80123;SDS011;69433;48.642;9.142;2023-12-04T16:26:05;15.85;;;10.18;;
80123;SDS011;69433;48.642;9.142;2023-12-04T16:28:40;15.38;;;10.68;;
80123;SDS011;69433;48.642;9.142;2023-12-04T16:31:11;15.80;;;10.45;;
80123;SDS011;69433;48.642;9.142;2023-12-04T16:33:47;15.85;;;10.52;;
80123;SDS011;69433;48.642;9.142;2023-12-04T16:39:04;15.90;;;10.50;;
80123;SDS011;69433;48.642;9.142;2023-12-04T16:41:35;14.77;;;10.07;;
80123;SDS011;69433;48.642;9.142;2023-12-04T16:44:01;14.80;;;9.80;;
80123;SDS011;69433;48.642;9.142;2023-12-04T16:49:20;17.38;;;10.15;;
80123;SDS011;69433;48.642;9.142;2023-12-04T16:51:54;20.48;;;9.85;;
80123;SDS011;69433;48.642;9.142;2023-12-04T16:54:26;15.07;;;9.43;;
80123;SDS011;69433;48.642;9.142;2023-12-04T16:56:53;14.70;;;9.57;;
80123;SDS011;69433;48.642;9.142;2023-12-04T16:59:25;15.35;;;9.98;;
80123;SDS011;69433;48.642;9.142;2023-12-04T17:01:55;23.85;;;9.68;;
80123;SDS011;69433;48.642;9.142;2023-12-04T17:07:08;18.00;;;8.82;;
80123;SDS011;69433;48.642;9.142;2023-12-04T17:09:35;13.15;;;8.85;;
80123;SDS011;69433;48.642;9.142;2023-12-04T17:12:12;13.48;;;9.35;;
80123;SDS011;69433;48.642;9.142;2023-12-04T17:14:51;15.80;;;9.73;;
80123;SDS011;69433;48.642;9.142;2023-12-04T17:17:21;14.18;;;9.13;;
80123;SDS011;69433;48.642;9.142;2023-12-04T17:22:31;13.30;;;8.80;;
80123;SDS011;69433;48.642;9.142;2023-12-04T17:24:58;13.15;;;8.85;;
80123;SDS011;69433;48.642;9.142;2023-12-04T17:27:25;12.45;;;8.93;;
80123;SDS011;69433;48.642;9.142;2023-12-04T17:29:51;13.57;;;8.60;;
80123;SDS011;69433;48.642;9.142;2023-12-04T17:32:25;15.60;;;8.70;;
80123;SDS011;69433;48.642;9.142;2023-12-04T17:35:04;11.43;;;8.60;;
80123;SDS011;69433;48.642;9.142;2023-12-04T17:40:26;11.57;;;8.45;;
80123;SDS011;69433;48.642;9.142;2023-12-04T17:42:53;13.20;;;9.05;;
80123;SDS011;69433;48.642;9.142;2023-12-04T17:45:21;12.15;;;8.07;;
80123;SDS011;69433;48.642;9.142;2023-12-04T17:47:47;12.65;;;8.48;;